createdAt,value
2022-08-12T00:01:02.415Z,100128.00
2022-08-12T00:03:50.584Z,100124.00
2022-08-12T00:06:39.605Z,100116.00
2022-08-12T00:09:26.601Z,100125.00
2022-08-12T00:12:14.008Z,100126.00
2022-08-12T00:15:01.884Z,100124.00
2022-08-12T00:17:49.589Z,100118.00
2022-08-12T00:20:36.015Z,100123.00
2022-08-12T00:23:22.671Z,100124.00
2022-08-12T00:26:22.714Z,100116.00
2022-08-12T00:29:12.606Z,100109.00
2022-08-12T00:32:02.101Z,100127.00
2022-08-12T00:34:53.158Z,100126.00
2022-08-12T00:37:43.754Z,100138.00
2022-08-12T00:40:33.268Z,100130.00
2022-08-12T00:43:04.330Z,100138.00
2022-08-12T00:45:53.297Z,100139.00
2022-08-12T00:48:23.065Z,100131.00
2022-08-12T00:50:57.390Z,100137.00
2022-08-12T00:53:29.642Z,100132.00
2022-08-12T00:56:00.757Z,100131.00
2022-08-12T00:58:32.502Z,100133.00
2022-08-12T01:01:06.700Z,100137.00
2022-08-12T01:03:56.559Z,100126.00
2022-08-12T01:06:51.232Z,100122.00
2022-08-12T01:09:42.163Z,100128.00
2022-08-12T01:12:13.865Z,100126.00
2022-08-12T01:14:47.343Z,100131.00
2022-08-12T01:17:17.230Z,100136.00
2022-08-12T01:19:52.586Z,100126.00
2022-08-12T01:22:32.013Z,100134.00
2022-08-12T01:25:08.421Z,100129.00
2022-08-12T01:27:41.606Z,100123.00
2022-08-12T01:30:14.222Z,100132.00
2022-08-12T01:32:48.940Z,100129.00
2022-08-12T01:35:18.559Z,100124.00
2022-08-12T01:37:55.188Z,100125.00
2022-08-12T01:40:33.740Z,100121.00
2022-08-12T01:43:11.146Z,100128.00
2022-08-12T01:45:57.563Z,100121.00
2022-08-12T01:48:35.582Z,100120.00
2022-08-12T01:51:24.477Z,100127.00
2022-08-12T01:54:06.400Z,100124.00
2022-08-12T01:56:49.196Z,100119.00
2022-08-12T01:59:42.969Z,100126.00
2022-08-12T02:02:16.457Z,100125.00
2022-08-12T02:05:26.408Z,100121.00
2022-08-12T02:08:31.820Z,100114.00
2022-08-12T02:11:19.829Z,100108.00
2022-08-12T02:14:13.732Z,100112.00
2022-08-12T02:17:05.233Z,100109.00
2022-08-12T02:19:55.213Z,100112.00
2022-08-12T02:22:31.418Z,100109.00
2022-08-12T02:25:08.785Z,100094.00
2022-08-12T02:27:45.658Z,100107.00
2022-08-12T02:30:19.647Z,100105.00
2022-08-12T02:32:50.694Z,100100.00
2022-08-12T02:35:21.389Z,100101.00
2022-08-12T02:37:53.376Z,100102.00
2022-08-12T02:40:23.648Z,100111.00
2022-08-12T02:42:58.781Z,100102.00
2022-08-12T02:45:39.060Z,100094.00
2022-08-12T02:48:11.407Z,100092.00
2022-08-12T02:50:47.817Z,100092.00
2022-08-12T02:53:17.714Z,100088.00
2022-08-12T02:55:46.866Z,100081.00
2022-08-12T02:58:16.267Z,100088.00
2022-08-12T03:00:49.517Z,100094.00
2022-08-12T03:03:23.264Z,100088.00
2022-08-12T03:06:00.790Z,100089.00
2022-08-12T03:08:42.194Z,100088.00
2022-08-12T03:11:17.801Z,100098.00
2022-08-12T03:13:52.967Z,100083.00
2022-08-12T03:16:23.847Z,100091.00
2022-08-12T03:18:52.317Z,100093.00
2022-08-12T03:21:55.532Z,100090.00
2022-08-12T03:24:14.593Z,100097.00
2022-08-12T03:26:48.837Z,100088.00
2022-08-12T03:29:18.947Z,100092.00
2022-08-12T03:31:49.605Z,100083.00
2022-08-12T03:34:26.573Z,100094.00
2022-08-12T03:36:56.345Z,100098.00
2022-08-12T03:39:36.546Z,100095.00
2022-08-12T03:42:21.958Z,100094.00
2022-08-12T03:45:23.496Z,100094.00
2022-08-12T03:48:19.021Z,100093.00
2022-08-12T03:51:06.568Z,100096.00
2022-08-12T03:53:53.460Z,100095.00
2022-08-12T03:56:39.316Z,100097.00
2022-08-12T03:59:26.326Z,100107.00
2022-08-12T04:01:58.282Z,100098.00
2022-08-12T04:04:34.148Z,100098.00
2022-08-12T04:07:07.776Z,100101.00
2022-08-12T04:09:39.281Z,100093.00
2022-08-12T04:12:26.494Z,100092.00
2022-08-12T04:14:57.464Z,100101.00
2022-08-12T04:17:28.272Z,100096.00
2022-08-12T04:19:59.667Z,100108.00
2022-08-12T04:22:30.486Z,100100.00
2022-08-12T04:25:01.956Z,100100.00
2022-08-12T04:27:32.055Z,100099.00
2022-08-12T04:30:32.858Z,100092.00
2022-08-12T04:32:52.137Z,100094.00
2022-08-12T04:35:23.221Z,100102.00
2022-08-12T04:37:58.162Z,100103.00
2022-08-12T04:40:31.042Z,100102.00
2022-08-12T04:43:01.278Z,100102.00
2022-08-12T04:45:30.640Z,100111.00
2022-08-12T04:47:58.617Z,100112.00
2022-08-12T04:50:35.081Z,100111.00
2022-08-12T04:53:06.936Z,100126.00
2022-08-12T04:55:38.348Z,100124.00
2022-08-12T04:58:06.440Z,100118.00
2022-08-12T05:00:34.940Z,100111.00
2022-08-12T05:03:03.056Z,100115.00
2022-08-12T05:05:36.278Z,100119.00
2022-08-12T05:08:07.820Z,100127.00
2022-08-12T05:10:36.233Z,100123.00
2022-08-12T05:13:11.061Z,100135.00
2022-08-12T05:16:03.582Z,100126.00
2022-08-12T05:18:29.659Z,100121.00
2022-08-12T05:21:00.330Z,100111.00
2022-08-12T05:23:32.101Z,100112.00
2022-08-12T05:26:05.088Z,100118.00
2022-08-12T05:28:34.588Z,100122.00
2022-08-12T05:31:02.808Z,100120.00
2022-08-12T05:33:38.356Z,100124.00
2022-08-12T05:36:12.604Z,100127.00
2022-08-12T05:38:59.955Z,100131.00
2022-08-12T05:41:31.246Z,100123.00
2022-08-12T05:44:02.852Z,100120.00
2022-08-12T05:46:33.125Z,100121.00
2022-08-12T05:49:02.199Z,100112.00
2022-08-12T05:51:40.226Z,100116.00
2022-08-12T05:54:11.158Z,100112.00
2022-08-12T05:56:40.063Z,100114.00
2022-08-12T05:59:10.998Z,100120.00
2022-08-12T06:02:11.662Z,100116.00
2022-08-12T06:04:28.846Z,100126.00
2022-08-12T06:06:58.220Z,100124.00
2022-08-12T06:09:28.666Z,100124.00
2022-08-12T06:12:05.090Z,100120.00
2022-08-12T06:14:37.028Z,100133.00
2022-08-12T06:17:09.334Z,100127.00
2022-08-12T06:20:27.771Z,100127.00
2022-08-12T06:22:27.745Z,100127.00
2022-08-12T06:24:55.787Z,100130.00
2022-08-12T06:27:23.882Z,100130.00
2022-08-12T06:30:08.283Z,100138.00
2022-08-12T06:32:51.621Z,100125.00
2022-08-12T06:35:48.630Z,100129.00
2022-08-12T06:38:21.942Z,100114.00
2022-08-12T06:41:13.227Z,100124.00
2022-08-12T06:44:06.166Z,100127.00
2022-08-12T06:46:31.543Z,100123.00
2022-08-12T06:49:00.715Z,100122.00
2022-08-12T06:51:32.699Z,100124.00
2022-08-12T06:54:02.910Z,100124.00
2022-08-12T06:57:00.242Z,100127.00
2022-08-12T06:59:21.492Z,100120.00
2022-08-12T07:01:51.602Z,100132.00
2022-08-12T07:04:38.188Z,100122.00
2022-08-12T07:07:08.927Z,100129.00
2022-08-12T07:10:04.298Z,100128.00
2022-08-12T07:12:27.790Z,100121.00
2022-08-12T07:14:57.085Z,100125.00
2022-08-12T07:17:25.095Z,100132.00
2022-08-12T07:19:53.670Z,100122.00
2022-08-12T07:22:23.350Z,100130.00
2022-08-12T07:25:13.399Z,100135.00
2022-08-12T07:27:42.627Z,100132.00
2022-08-12T07:30:12.633Z,100144.00
2022-08-12T07:32:40.867Z,100146.00
2022-08-12T07:35:09.897Z,100146.00
2022-08-12T07:37:42.681Z,100139.00
2022-08-12T07:40:13.083Z,100140.00
2022-08-12T07:42:43.553Z,100145.00
2022-08-12T07:45:14.089Z,100150.00
2022-08-12T07:47:43.780Z,100144.00
2022-08-12T07:50:13.610Z,100144.00
2022-08-12T07:52:46.931Z,100144.00
2022-08-12T07:55:19.573Z,100156.00
2022-08-12T07:57:59.472Z,100152.00
2022-08-12T08:00:30.048Z,100140.00
2022-08-12T08:02:58.750Z,100143.00
2022-08-12T08:05:32.552Z,100150.00
2022-08-12T08:08:01.757Z,100148.00
2022-08-12T08:10:33.437Z,100143.00
2022-08-12T08:13:05.194Z,100145.00
2022-08-12T08:16:01.347Z,100140.00
2022-08-12T08:18:26.593Z,100147.00
2022-08-12T08:20:57.437Z,100149.00
2022-08-12T08:23:56.422Z,100150.00
2022-08-12T08:26:28.305Z,100144.00
2022-08-12T08:28:56.942Z,100154.00
2022-08-12T08:31:25.039Z,100154.00
2022-08-12T08:34:04.378Z,100150.00
2022-08-12T08:36:39.121Z,100154.00
2022-08-12T08:39:10.283Z,100145.00
2022-08-12T08:42:16.577Z,100156.00
2022-08-12T08:44:46.325Z,100155.00
2022-08-12T08:47:14.452Z,100133.00
2022-08-12T08:49:42.684Z,100141.00
2022-08-12T08:52:12.510Z,100145.00
2022-08-12T08:55:00.606Z,100139.00
2022-08-12T08:57:42.688Z,100133.00
2022-08-12T09:00:15.737Z,100140.00
2022-08-12T09:02:49.134Z,100140.00
2022-08-12T09:05:26.680Z,100139.00
2022-08-12T09:14:11.000Z,100135.00
2022-08-12T09:16:23.352Z,100150.00
2022-08-12T09:18:52.394Z,100123.00
2022-08-12T09:21:23.171Z,100134.00
2022-08-12T09:23:57.394Z,100128.00
2022-08-12T09:30:08.937Z,100129.00
2022-08-12T09:32:29.619Z,100136.00
2022-08-12T09:34:57.772Z,100141.00
2022-08-12T09:37:26.643Z,100138.00
2022-08-12T09:40:02.431Z,100133.00
2022-08-12T09:43:17.269Z,100129.00
2022-08-12T09:46:11.744Z,100122.00
2022-08-12T09:48:36.331Z,100127.00
2022-08-12T09:51:10.953Z,100126.00
2022-08-12T09:54:05.525Z,100117.00
2022-08-12T09:56:59.778Z,100124.00
2022-08-12T10:00:13.901Z,100119.00
2022-08-12T10:02:43.173Z,100099.00
2022-08-12T10:05:02.455Z,100106.00
2022-08-12T10:07:39.635Z,100104.00
2022-08-12T10:10:25.220Z,100101.00
2022-08-12T10:13:38.987Z,100096.00
2022-08-12T10:16:07.654Z,100084.00
2022-08-12T10:18:51.794Z,100087.00
2022-08-12T10:21:35.563Z,100080.00
2022-08-12T10:24:08.290Z,100079.00
2022-08-12T10:26:56.128Z,100069.00
2022-08-12T10:30:03.578Z,100083.00
2022-08-12T10:32:45.135Z,100089.00
2022-08-12T10:35:16.877Z,100087.00
2022-08-12T10:38:37.289Z,100089.00
2022-08-12T10:40:55.294Z,100083.00
2022-08-12T10:43:55.478Z,100080.00
2022-08-12T10:46:30.364Z,100069.00
2022-08-12T10:49:07.050Z,100065.00
2022-08-12T10:52:32.340Z,100062.00
2022-08-12T10:54:41.476Z,100063.00
2022-08-12T10:57:18.445Z,100060.00
2022-08-12T11:00:34.599Z,100056.00
2022-08-12T11:04:25.696Z,100047.00
2022-08-12T11:07:05.007Z,100055.00
2022-08-12T11:08:43.714Z,100056.00
2022-08-12T11:12:07.565Z,100056.00
2022-08-12T11:14:06.758Z,100048.00
2022-08-12T11:17:33.500Z,100051.00
2022-08-12T11:19:45.864Z,100051.00
2022-08-12T11:22:14.408Z,100040.00
2022-08-12T11:24:51.675Z,100033.00
2022-08-12T11:27:19.897Z,100029.00
2022-08-12T11:30:02.443Z,100023.00
2022-08-12T11:32:38.882Z,100006.00
2022-08-12T11:35:09.017Z,100021.00
2022-08-12T11:37:58.344Z,100038.00
2022-08-12T11:40:29.514Z,100013.00
2022-08-12T11:43:18.640Z,100010.00
2022-08-12T11:45:53.432Z,100015.00
2022-08-12T11:48:27.121Z,100020.00
2022-08-12T11:50:56.355Z,100018.00
2022-08-12T11:53:59.591Z,100018.00
2022-08-12T11:56:13.791Z,100020.00
2022-08-12T12:02:02.420Z,100017.00
2022-08-12T12:04:28.991Z,100012.00
2022-08-12T12:07:07.243Z,100012.00
2022-08-12T12:09:52.007Z,100024.00
2022-08-12T12:12:32.487Z,100006.00
2022-08-12T12:15:06.787Z,100011.00
2022-08-12T12:17:38.134Z,99995.00
2022-08-12T12:20:09.887Z,100007.00
2022-08-12T12:22:39.213Z,100002.00
2022-08-12T12:25:13.193Z,100001.00
2022-08-12T12:28:05.195Z,99995.00
2022-08-12T12:30:34.368Z,100003.00
2022-08-12T12:33:02.672Z,100005.00
2022-08-12T12:36:20.011Z,100003.00
2022-08-12T12:38:19.980Z,99995.00
2022-08-12T12:40:50.247Z,100004.00
2022-08-12T12:43:28.700Z,99997.00
2022-08-12T12:46:08.777Z,99999.00
2022-08-12T12:48:37.751Z,100012.00
2022-08-12T12:51:48.567Z,99986.00
2022-08-12T12:54:09.730Z,99982.00
2022-08-12T12:56:41.866Z,99982.00
2022-08-12T12:59:54.418Z,99979.00
2022-08-12T13:02:07.552Z,99973.00
2022-08-12T13:04:37.872Z,99970.00
2022-08-12T13:07:06.854Z,99967.00
2022-08-12T13:09:36.253Z,99979.00
2022-08-12T13:12:08.978Z,99959.00
2022-08-12T13:14:39.821Z,99961.00
2022-08-12T13:17:11.361Z,99966.00
2022-08-12T13:19:48.273Z,99976.00
2022-08-12T13:22:20.114Z,99966.00
2022-08-12T13:24:54.554Z,99973.00
2022-08-12T13:27:35.282Z,99965.00
2022-08-12T13:30:11.307Z,99947.00
2022-08-12T13:32:42.538Z,99953.00
2022-08-12T13:35:20.376Z,99967.00
2022-08-12T13:38:02.757Z,99954.00
2022-08-12T13:40:33.877Z,99949.00
2022-08-12T13:43:06.398Z,99936.00
2022-08-12T13:45:36.817Z,99941.00
2022-08-12T13:48:07.285Z,99928.00
2022-08-12T13:50:38.237Z,99937.00
2022-08-12T13:53:24.354Z,99932.00
2022-08-12T13:56:01.575Z,99930.00
2022-08-12T13:58:33.029Z,99919.00
2022-08-12T14:01:05.881Z,99918.00
2022-08-12T14:03:50.536Z,99912.00
2022-08-12T14:06:20.989Z,99940.00
2022-08-12T14:08:50.576Z,99923.00
2022-08-12T14:11:25.211Z,99931.00
2022-08-12T14:14:03.717Z,99918.00
2022-08-12T14:16:49.285Z,99911.00
2022-08-12T14:19:24.193Z,99910.00
2022-08-12T14:22:00.688Z,99903.00
2022-08-12T14:24:35.618Z,99913.00
2022-08-12T14:27:08.866Z,99903.00
2022-08-12T14:30:04.142Z,99901.00
2022-08-12T14:32:39.948Z,99905.00
2022-08-12T14:35:09.784Z,99897.00
2022-08-12T14:37:58.197Z,99886.00
2022-08-12T14:40:29.377Z,99892.00
2022-08-12T14:42:58.418Z,99886.00
2022-08-12T14:45:44.287Z,99880.00
2022-08-12T14:48:19.396Z,99888.00
2022-08-12T14:52:10.665Z,99876.00
2022-08-12T14:54:49.942Z,99880.00
2022-08-12T14:57:00.090Z,99888.00
2022-08-12T14:59:56.399Z,99876.00
2022-08-12T15:02:25.950Z,99876.00
2022-08-12T15:04:59.592Z,99875.00
2022-08-12T15:07:33.523Z,99873.00
2022-08-12T15:10:25.107Z,99872.00
2022-08-12T15:13:07.544Z,99876.00
2022-08-12T15:15:43.918Z,99873.00
2022-08-12T15:18:21.811Z,99869.00
2022-08-12T15:20:54.708Z,99859.00
2022-08-12T15:23:23.995Z,99863.00
2022-08-12T15:25:59.692Z,99863.00
2022-08-12T15:28:33.681Z,99869.00
2022-08-12T15:31:02.421Z,99859.00
2022-08-12T15:33:44.597Z,99859.00
2022-08-12T15:36:19.523Z,99859.00
2022-08-12T15:39:05.781Z,99863.00
2022-08-12T15:41:50.148Z,99863.00
2022-08-12T15:44:38.735Z,99852.00
2022-08-12T15:47:09.022Z,99851.00
2022-08-12T15:49:43.158Z,99851.00
2022-08-12T15:52:28.138Z,99859.00
2022-08-12T15:54:58.390Z,99850.00
2022-08-12T15:57:27.644Z,99850.00
2022-08-12T16:00:04.592Z,99844.00
2022-08-12T16:02:47.321Z,99846.00
2022-08-12T16:06:11.119Z,99843.00
2022-08-12T16:08:18.305Z,99847.00
2022-08-12T16:10:48.532Z,99860.00
2022-08-12T16:13:32.377Z,99849.00
2022-08-12T16:16:03.290Z,99850.00
2022-08-12T16:18:33.359Z,99844.00
2022-08-12T16:21:02.484Z,99851.00
2022-08-12T16:23:52.008Z,99847.00
2022-08-12T16:26:32.271Z,99842.00
2022-08-12T16:29:14.445Z,99840.00
2022-08-12T16:31:44.969Z,99843.00
2022-08-12T16:34:40.160Z,99840.00
2022-08-12T16:37:07.194Z,99841.00
2022-08-12T16:39:59.952Z,99833.00
2022-08-12T16:42:28.477Z,99831.00
2022-08-12T16:44:59.396Z,99827.00
2022-08-12T16:47:28.029Z,99836.00
2022-08-12T16:49:57.666Z,99824.00
2022-08-12T16:52:26.202Z,99829.00
2022-08-12T16:54:56.632Z,99827.00
2022-08-12T16:57:34.925Z,99825.00
2022-08-12T17:00:06.948Z,99813.00
2022-08-12T17:02:37.821Z,99824.00
2022-08-12T17:05:12.500Z,99813.00
2022-08-12T17:07:43.305Z,99813.00
2022-08-12T17:10:18.157Z,99817.00
2022-08-12T17:12:46.678Z,99818.00
2022-08-12T17:15:50.981Z,99808.00
2022-08-12T17:18:42.482Z,99810.00
2022-08-12T17:20:56.330Z,99823.00
2022-08-12T17:23:28.508Z,99811.00
2022-08-12T17:26:18.580Z,99809.00
2022-08-12T17:28:52.618Z,99812.00
2022-08-12T17:31:59.837Z,99812.00
2022-08-12T17:34:31.397Z,99812.00
2022-08-12T17:37:05.743Z,99805.00
2022-08-12T17:40:12.245Z,99809.00
2022-08-12T17:42:32.955Z,99811.00
2022-08-12T17:45:17.245Z,99812.00
2022-08-12T17:48:01.521Z,99807.00
2022-08-12T17:50:32.297Z,99811.00
2022-08-12T17:53:02.719Z,99810.00
2022-08-12T17:55:43.741Z,99818.00
2022-08-12T17:58:37.073Z,99818.00
2022-08-12T18:01:11.459Z,99820.00
2022-08-12T18:03:57.504Z,99825.00
2022-08-12T18:06:31.999Z,99827.00
2022-08-12T18:09:08.452Z,99824.00
2022-08-12T18:12:06.247Z,99824.00
2022-08-12T18:14:40.991Z,99829.00
2022-08-12T18:17:12.119Z,99823.00
2022-08-12T18:20:06.244Z,99825.00
2022-08-12T18:22:33.003Z,99827.00
2022-08-12T18:25:05.069Z,99832.00
2022-08-12T18:27:44.956Z,99836.00
2022-08-12T18:30:28.910Z,99830.00
2022-08-12T18:33:03.611Z,99835.00
2022-08-12T18:35:47.791Z,99834.00
2022-08-12T18:38:25.061Z,99842.00
2022-08-12T18:41:21.508Z,99843.00
2022-08-12T18:43:59.979Z,99853.00
2022-08-12T18:46:45.774Z,99844.00
2022-08-12T18:49:20.032Z,99854.00
2022-08-12T18:52:02.325Z,99856.00
2022-08-12T18:54:35.855Z,99861.00
2022-08-12T18:57:19.609Z,99856.00
2022-08-12T19:00:06.340Z,99857.00
2022-08-12T19:02:39.685Z,99860.00
2022-08-12T19:05:11.238Z,99855.00
2022-08-12T19:07:50.049Z,99858.00
2022-08-12T19:10:32.632Z,99862.00
2022-08-12T19:13:23.941Z,99861.00
2022-08-12T19:15:57.537Z,99868.00
2022-08-12T19:18:29.523Z,99873.00
2022-08-12T19:21:00.360Z,99875.00
2022-08-12T19:23:35.942Z,99874.00
2022-08-12T19:26:10.519Z,99879.00
2022-08-12T19:28:41.575Z,99869.00
2022-08-12T19:31:55.571Z,99877.00
2022-08-12T19:37:26.653Z,99870.00
2022-08-12T19:40:08.117Z,99864.00
2022-08-12T19:42:44.559Z,99872.00
2022-08-12T19:45:15.726Z,99869.00
2022-08-12T19:47:46.664Z,99870.00
2022-08-12T19:50:19.904Z,99871.00
2022-08-12T19:52:53.355Z,99874.00
2022-08-12T19:55:24.882Z,99869.00
2022-08-12T19:58:01.622Z,99875.00
2022-08-12T20:00:30.785Z,99876.00
2022-08-12T20:03:00.638Z,99881.00
2022-08-12T20:06:05.882Z,99877.00
2022-08-12T20:08:32.819Z,99871.00
2022-08-12T20:12:09.302Z,99874.00
2022-08-12T20:14:00.808Z,99876.00
2022-08-12T20:16:52.783Z,99874.00
2022-08-12T20:19:52.698Z,99875.00
2022-08-12T20:22:24.777Z,99881.00
2022-08-12T20:25:01.540Z,99874.00
2022-08-12T20:28:05.290Z,99888.00
2022-08-12T20:30:37.335Z,99872.00
2022-08-12T20:33:16.740Z,99872.00
2022-08-12T20:36:06.258Z,99870.00
2022-08-12T20:38:40.265Z,99873.00
2022-08-12T20:41:17.418Z,99870.00
2022-08-12T20:43:54.765Z,99872.00
2022-08-12T20:46:27.951Z,99877.00
2022-08-12T20:48:57.804Z,99882.00
2022-08-12T20:51:51.037Z,99879.00
2022-08-12T20:54:18.394Z,99877.00
2022-08-12T20:56:47.115Z,99873.00
2022-08-12T20:59:20.376Z,99870.00
2022-08-12T21:01:53.767Z,99876.00
2022-08-12T21:04:43.694Z,99871.00
2022-08-12T21:07:14.329Z,99871.00
2022-08-12T21:09:48.294Z,99871.00
2022-08-12T21:12:27.614Z,99874.00
2022-08-12T21:15:17.628Z,99871.00
2022-08-12T21:18:00.898Z,99876.00
2022-08-12T21:20:37.752Z,99873.00
2022-08-12T21:23:07.503Z,99869.00
2022-08-12T21:25:45.503Z,99875.00
2022-08-12T21:28:14.872Z,99884.00
2022-08-12T21:31:11.610Z,99878.00
2022-08-12T21:33:58.565Z,99875.00
2022-08-12T21:36:22.959Z,99874.00
2022-08-12T21:39:17.999Z,99876.00
2022-08-12T21:41:53.036Z,99874.00
2022-08-12T21:45:44.662Z,99876.00
2022-08-12T21:47:19.832Z,99873.00
2022-08-12T21:50:02.357Z,99873.00
2022-08-12T21:52:35.496Z,99873.00
2022-08-12T21:55:07.954Z,99878.00
2022-08-12T21:57:50.848Z,99877.00
2022-08-12T22:00:21.147Z,99881.00
2022-08-12T22:03:07.870Z,99880.00
2022-08-12T22:05:53.556Z,99880.00
2022-08-12T22:08:25.504Z,99885.00
2022-08-12T22:10:56.487Z,99885.00
2022-08-12T22:14:07.299Z,99891.00
2022-08-12T22:16:17.051Z,99887.00
2022-08-12T22:18:50.611Z,99888.00
2022-08-12T22:21:22.232Z,99886.00
2022-08-12T22:24:05.415Z,99886.00
2022-08-12T22:26:37.821Z,99891.00
2022-08-12T22:29:27.417Z,99887.00
2022-08-12T22:31:56.463Z,99889.00
2022-08-12T22:34:29.357Z,99886.00
2022-08-12T22:36:58.150Z,99890.00
2022-08-12T22:39:26.700Z,99893.00
2022-08-12T22:42:12.573Z,99891.00
2022-08-12T22:44:59.361Z,99886.00
2022-08-12T22:47:53.890Z,99885.00
2022-08-12T22:50:28.510Z,99882.00
2022-08-12T22:53:15.480Z,99885.00
2022-08-12T22:55:59.922Z,99886.00
2022-08-12T22:58:36.569Z,99889.00
2022-08-12T23:01:06.938Z,99884.00
2022-08-12T23:03:49.508Z,99884.00
2022-08-12T23:06:21.404Z,99878.00
2022-08-12T23:08:49.858Z,99880.00
2022-08-12T23:11:23.543Z,99880.00
2022-08-12T23:13:56.839Z,99876.00
2022-08-12T23:16:33.463Z,99884.00
2022-08-12T23:19:09.989Z,99878.00
2022-08-12T23:22:05.792Z,99879.00
2022-08-12T23:24:53.843Z,99872.00
2022-08-12T23:27:50.229Z,99872.00
2022-08-12T23:30:31.850Z,99872.00
2022-08-12T23:33:13.203Z,99871.00
2022-08-12T23:36:02.485Z,99877.00
2022-08-12T23:38:33.019Z,99875.00
2022-08-12T23:41:03.549Z,99871.00
2022-08-12T23:43:39.600Z,99873.00
2022-08-12T23:46:12.146Z,99876.00
2022-08-12T23:48:51.682Z,99875.00
2022-08-12T23:51:24.497Z,99882.00
2022-08-12T23:53:56.226Z,99877.00
2022-08-12T23:56:25.575Z,99883.00
2022-08-12T23:58:54.981Z,99878.00
